Time;durP1;ratioP1;P1;durP2;ratioP2;P2;SDS_P1;SDS_P2;PMS_P1;PMS_P2;Temp;Humidity;BMP_temperature;BMP_pressure;BME280_temperature;BME280_humidity;BME280_pressure;Samples;Min_cycle;Max_cycle;Signal;HPM_P1;HPM_P2
2023/09/17 00:01:23;;;;;;;4.03;3.63;;;18.20;99.90;;;;;;5092505;28;20169;-87
2023/09/17 00:03:50;;;;;;;4.22;3.83;;;18.10;99.90;;;;;;5092975;28;20184;-87
2023/09/17 00:06:17;;;;;;;4.13;3.70;;;17.90;99.90;;;;;;5074735;28;20176;-87
2023/09/17 00:08:43;;;;;;;4.25;3.92;;;17.90;99.90;;;;;;5075019;28;20192;-86
2023/09/17 00:11:08;;;;;;;4.43;3.88;;;17.90;99.90;;;;;;5092692;28;20711;-87
2023/09/17 00:13:35;;;;;;;4.57;3.63;;;18.00;99.90;;;;;;5074432;28;20267;-86
2023/09/17 00:16:01;;;;;;;5.10;4.07;;;17.90;99.90;;;;;;5074483;28;20179;-87
2023/09/17 00:18:27;;;;;;;4.20;3.80;;;17.80;99.90;;;;;;5092815;28;20196;-86
2023/09/17 00:20:53;;;;;;;5.03;4.25;;;17.90;99.90;;;;;;5092549;28;20565;-86
2023/09/17 00:23:19;;;;;;;4.57;4.07;;;18.00;99.90;;;;;;5092764;28;20257;-86
2023/09/17 00:25:44;;;;;;;7.15;4.20;;;18.00;99.90;;;;;;5092739;28;20174;-86
2023/09/17 00:28:10;;;;;;;5.15;4.55;;;18.10;99.90;;;;;;5092428;28;20215;-87
2023/09/17 00:30:35;;;;;;;4.82;4.43;;;18.10;99.90;;;;;;5092278;28;20180;-86
2023/09/17 00:33:02;;;;;;;4.90;4.50;;;18.00;99.90;;;;;;5074687;28;20290;-87
2023/09/17 00:35:27;;;;;;;4.97;4.47;;;18.00;99.90;;;;;;5092491;28;20205;-86
2023/09/17 00:37:53;;;;;;;5.20;4.70;;;18.00;99.90;;;;;;5076706;28;20172;-87
2023/09/17 00:40:23;;;;;;;5.40;4.70;;;17.90;99.90;;;;;;5082095;28;20175;-86
2023/09/17 00:42:48;;;;;;;5.47;4.40;;;17.90;99.90;;;;;;5097698;28;20175;-87
2023/09/17 00:45:14;;;;;;;4.90;4.50;;;17.90;99.90;;;;;;5077790;28;20283;-86
2023/09/17 00:47:40;;;;;;;7.13;4.50;;;17.90;99.90;;;;;;5077867;28;20655;-87
2023/09/17 00:50:09;;;;;;;5.13;4.60;;;17.90;99.90;;;;;;5078008;28;20202;-86
2023/09/17 00:52:36;;;;;;;5.20;4.70;;;17.90;99.90;;;;;;5077931;28;20251;-86
2023/09/17 00:55:03;;;;;;;4.88;4.35;;;17.90;99.90;;;;;;5077740;28;20203;-87
2023/09/17 00:57:30;;;;;;;4.90;4.50;;;17.90;99.90;;;;;;5095946;28;20172;-87
2023/09/17 00:59:55;;;;;;;6.70;4.50;;;17.90;99.90;;;;;;5077469;28;20204;-86
2023/09/17 01:02:23;;;;;;;6.05;4.50;;;17.90;99.90;;;;;;5077616;28;20165;-87
2023/09/17 01:04:51;;;;;;;4.95;4.45;;;18.00;99.90;;;;;;5077591;28;20195;-87
2023/09/17 01:07:20;;;;;;;6.95;4.70;;;17.90;99.90;;;;;;5077394;28;20204;-86
2023/09/17 01:09:47;;;;;;;4.90;4.50;;;17.90;99.90;;;;;;5095747;28;20237;-87
2023/09/17 01:12:13;;;;;;;5.15;4.75;;;17.90;99.90;;;;;;5095217;28;20218;-87
2023/09/17 01:14:38;;;;;;;5.57;5.07;;;17.80;99.90;;;;;;5093646;23;20216;-86
2023/09/17 01:17:08;;;;;;;4.77;4.37;;;17.80;99.90;;;;;;5075368;28;20203;-85
2023/09/17 01:19:34;;;;;;;4.53;4.00;;;17.70;99.90;;;;;;5075032;28;20264;-85
2023/09/17 01:22:12;;;;;;;5.18;4.43;;;17.70;99.90;;;;;;5056828;28;20169;-85
2023/09/17 01:24:49;;;;;;;5.43;4.30;;;17.60;99.90;;;;;;5074841;28;20207;-85
2023/09/17 01:27:18;;;;;;;4.47;3.83;;;17.60;99.90;;;;;;5057177;28;20164;-85
2023/09/17 01:29:44;;;;;;;5.00;4.00;;;17.60;99.90;;;;;;5056932;28;20268;-86
2023/09/17 01:32:11;;;;;;;4.67;3.93;;;17.60;99.90;;;;;;5074936;28;20573;-86
2023/09/17 01:34:39;;;;;;;4.27;3.90;;;17.50;99.90;;;;;;5074840;28;20247;-85
2023/09/17 01:37:30;;;;;;;4.13;3.73;;;17.60;99.90;;;;;;5073685;28;20184;-85
2023/09/17 01:40:05;;;;;;;4.80;3.70;;;17.70;99.90;;;;;;5076470;28;20637;-85
2023/09/17 01:42:31;;;;;;;4.20;3.80;;;17.70;99.90;;;;;;5094897;28;20570;-85
2023/09/17 01:44:59;;;;;;;4.27;3.87;;;17.60;99.90;;;;;;5076913;28;20202;-85
2023/09/17 01:47:26;;;;;;;4.33;3.50;;;17.70;99.90;;;;;;5076877;28;20173;-85
2023/09/17 01:49:55;;;;;;;5.30;4.00;;;17.80;99.90;;;;;;5094277;28;20175;-86
2023/09/17 01:52:25;;;;;;;4.23;3.83;;;17.70;99.90;;;;;;5094390;28;20172;-85
2023/09/17 01:54:50;;;;;;;5.47;4.27;;;17.70;99.90;;;;;;5076841;28;20549;-85
2023/09/17 01:57:16;;;;;;;4.27;3.87;;;17.70;99.90;;;;;;5076732;28;20225;-85
2023/09/17 01:59:42;;;;;;;6.03;4.60;;;17.60;99.90;;;;;;5076346;28;20201;-85
2023/09/17 02:02:07;;;;;;;5.27;4.40;;;17.50;99.90;;;;;;5094416;28;20172;-85
2023/09/17 02:04:33;;;;;;;5.23;4.73;;;17.40;99.90;;;;;;5094682;28;20192;-85
2023/09/17 02:06:58;;;;;;;5.73;4.70;;;17.40;99.90;;;;;;5094655;28;20168;-85
2023/09/17 02:09:24;;;;;;;4.53;3.87;;;17.40;99.90;;;;;;5076161;28;20225;-86
2023/09/17 02:11:50;;;;;;;7.00;3.90;;;17.40;99.90;;;;;;5056118;28;20181;-85
2023/09/17 02:14:16;;;;;;;4.30;3.63;;;17.30;99.90;;;;;;5056066;28;20201;-85
2023/09/17 02:16:42;;;;;;;4.80;4.30;;;17.20;99.90;;;;;;5056346;28;20161;-85
2023/09/17 02:19:09;;;;;;;6.30;4.40;;;17.10;99.90;;;;;;5074043;28;20231;-85
2023/09/17 02:21:35;;;;;;;4.70;4.30;;;17.10;99.90;;;;;;5073751;28;20219;-86
2023/09/17 02:24:01;;;;;;;5.03;3.63;;;17.20;99.90;;;;;;5073818;28;20189;-85
2023/09/17 02:26:27;;;;;;;3.83;3.40;;;17.10;99.90;;;;;;5056204;28;20249;-85
2023/09/17 02:28:52;;;;;;;4.13;3.47;;;16.90;99.90;;;;;;5055819;28;20592;-85
2023/09/17 02:31:18;;;;;;;4.37;3.23;;;16.80;99.90;;;;;;5073645;28;20732;-85
2023/09/17 02:33:43;;;;;;;4.20;3.50;;;16.80;99.90;;;;;;5056003;28;20184;-85
2023/09/17 02:36:09;;;;;;;3.67;3.37;;;16.80;99.90;;;;;;5055795;28;20215;-85
2023/09/17 02:38:34;;;;;;;4.00;3.50;;;16.80;99.90;;;;;;5055444;28;20200;-85
2023/09/17 02:41:00;;;;;;;3.90;3.50;;;16.80;99.90;;;;;;5073609;28;20169;-85
2023/09/17 02:43:29;;;;;;;3.83;3.40;;;16.80;99.90;;;;;;5073811;28;20249;-85
2023/09/17 02:45:55;;;;;;;4.00;3.70;;;16.90;99.90;;;;;;5055466;28;20204;-85
2023/09/17 02:48:21;;;;;;;4.17;3.73;;;16.90;99.90;;;;;;5073651;28;20181;-85
2023/09/17 02:50:47;;;;;;;3.90;3.60;;;16.90;99.90;;;;;;5073501;28;20180;-85
2023/09/17 02:53:12;;;;;;;4.40;3.60;;;16.90;99.90;;;;;;5073461;28;20172;-85
2023/09/17 02:55:39;;;;;;;5.30;3.50;;;16.90;99.90;;;;;;5055081;28;20192;-86
2023/09/17 02:58:05;;;;;;;4.20;3.40;;;16.90;99.90;;;;;;5073342;28;20172;-85
2023/09/17 03:00:32;;;;;;;5.80;3.47;;;16.80;99.90;;;;;;5055522;28;20202;-85
2023/09/17 03:02:58;;;;;;;4.33;3.70;;;16.80;99.90;;;;;;5073021;28;20610;-85
2023/09/17 03:05:24;;;;;;;4.07;3.70;;;16.70;99.90;;;;;;5073348;28;20279;-85
2023/09/17 03:07:49;;;;;;;4.57;3.60;;;16.70;99.90;;;;;;5073453;28;20175;-85
2023/09/17 03:10:18;;;;;;;4.00;3.50;;;16.70;99.90;;;;;;5073390;28;20189;-83
2023/09/17 03:12:46;;;;;;;6.10;3.70;;;16.60;99.90;;;;;;5057288;28;20181;-85
2023/09/17 03:15:15;;;;;;;3.90;3.60;;;16.60;99.90;;;;;;5034957;28;20258;-85
2023/09/17 03:17:43;;;;;;;4.47;4.07;;;16.60;99.90;;;;;;5035251;28;20598;-85
2023/09/17 03:20:22;;;;;;;4.07;3.67;;;16.70;99.90;;;;;;5034965;28;20220;-85
2023/09/17 03:22:48;;;;;;;3.63;3.33;;;16.60;99.90;;;;;;5035279;28;20161;-85
2023/09/17 03:25:14;;;;;;;4.40;3.70;;;16.60;99.90;;;;;;5034757;28;20193;-85
2023/09/17 03:27:42;;;;;;;4.43;3.40;;;16.70;99.90;;;;;;5052787;28;20173;-85
2023/09/17 03:30:08;;;;;;;3.93;3.33;;;16.80;99.90;;;;;;5035243;28;20327;-85
2023/09/17 03:32:33;;;;;;;4.50;3.70;;;16.90;99.90;;;;;;5052546;28;20174;-85
2023/09/17 03:35:01;;;;;;;5.07;3.50;;;16.90;99.90;;;;;;5034931;28;20548;-86
2023/09/17 03:37:26;;;;;;;4.77;4.13;;;16.90;99.90;;;;;;5034920;28;20260;-85
2023/09/17 03:40:11;;;;;;;4.30;3.90;;;16.80;99.90;;;;;;5034729;28;20628;-85
2023/09/17 03:42:38;;;;;;;4.40;4.00;;;16.70;99.90;;;;;;5052505;28;20169;-85
2023/09/17 03:45:05;;;;;;;5.03;3.67;;;16.70;99.90;;;;;;5052699;28;20402;-85
2023/09/17 03:47:34;;;;;;;4.73;4.27;;;16.60;99.90;;;;;;5052915;28;20170;-85
2023/09/17 03:50:00;;;;;;;4.90;4.30;;;16.50;99.90;;;;;;5034687;28;20184;-85
2023/09/17 03:52:29;;;;;;;5.50;3.63;;;16.60;99.90;;;;;;5052754;28;20174;-85
2023/09/17 03:54:55;;;;;;;4.40;4.00;;;16.60;99.90;;;;;;5034872;28;20575;-85
2023/09/17 03:57:21;;;;;;;5.83;4.20;;;16.50;99.90;;;;;;5034751;28;20180;-85
2023/09/17 03:59:47;;;;;;;4.30;3.90;;;16.40;99.90;;;;;;5034696;28;20288;-85
2023/09/17 04:02:13;;;;;;;4.10;3.77;;;16.40;99.90;;;;;;5052728;28;20166;-85
2023/09/17 04:04:39;;;;;;;3.97;3.50;;;16.40;99.90;;;;;;5052207;28;20200;-85
2023/09/17 04:07:04;;;;;;;4.13;3.80;;;16.30;99.90;;;;;;5034635;28;20222;-85
2023/09/17 04:09:30;;;;;;;4.20;3.80;;;16.20;99.90;;;;;;5035020;28;20277;-87
2023/09/17 04:12:02;;;;;;;4.80;4.00;;;16.10;99.90;;;;;;5035024;28;20174;-85
2023/09/17 04:14:28;;;;;;;6.47;4.07;;;16.20;99.90;;;;;;5056440;28;20205;-84
2023/09/17 04:16:54;;;;;;;4.23;3.67;;;16.20;99.90;;;;;;5056486;28;20178;-85
2023/09/17 04:19:20;;;;;;;5.40;3.53;;;16.20;99.90;;;;;;5056537;28;20201;-85
2023/09/17 04:21:45;;;;;;;4.10;3.37;;;16.20;99.90;;;;;;5056280;28;20574;-85
2023/09/17 04:24:12;;;;;;;4.97;3.87;;;16.20;99.90;;;;;;5038453;28;20682;-85
2023/09/17 04:26:37;;;;;;;4.10;3.70;;;16.10;99.90;;;;;;5056246;28;20173;-85
2023/09/17 04:29:04;;;;;;;3.90;3.60;;;16.10;99.90;;;;;;5056281;28;20174;-85
2023/09/17 04:31:30;;;;;;;4.30;3.90;;;16.10;99.90;;;;;;5037989;28;20185;-85
2023/09/17 04:33:56;;;;;;;4.07;3.67;;;16.00;99.90;;;;;;5038336;28;20178;-85
2023/09/17 04:36:22;;;;;;;5.00;4.20;;;16.00;99.90;;;;;;5056056;28;20261;-85
2023/09/17 04:38:47;;;;;;;4.20;3.90;;;16.00;99.90;;;;;;5037924;28;20292;-85
2023/09/17 04:41:14;;;;;;;4.37;3.80;;;16.00;99.90;;;;;;5037586;28;20174;-85
2023/09/17 04:43:40;;;;;;;4.67;4.20;;;15.90;99.90;;;;;;5038464;28;20174;-85
2023/09/17 04:46:05;;;;;;;4.50;4.10;;;15.90;99.90;;;;;;5056631;28;20255;-84
2023/09/17 04:48:31;;;;;;;4.50;4.10;;;16.00;99.90;;;;;;5038773;28;20217;-85
2023/09/17 04:50:57;;;;;;;5.77;4.07;;;16.00;99.90;;;;;;5056658;28;20182;-84
2023/09/17 04:53:22;;;;;;;4.70;4.20;;;16.00;99.90;;;;;;5057034;28;20174;-84
2023/09/17 04:55:48;;;;;;;4.40;3.87;;;16.00;99.90;;;;;;5057279;28;20208;-85
2023/09/17 04:58:14;;;;;;;4.37;3.77;;;16.10;99.90;;;;;;5038583;28;20177;-83
2023/09/17 05:00:39;;;;;;;4.83;3.83;;;16.10;99.90;;;;;;5039193;28;20174;-82
2023/09/17 05:03:05;;;;;;;4.30;3.90;;;16.00;99.90;;;;;;5039659;28;20177;-83
2023/09/17 05:05:31;;;;;;;4.30;3.90;;;16.00;99.90;;;;;;5039124;28;20197;-82
2023/09/17 05:07:56;;;;;;;5.13;4.27;;;16.00;99.90;;;;;;5039244;28;20668;-84
2023/09/17 05:10:22;;;;;;;4.50;4.10;;;16.10;99.90;;;;;;5057454;28;20181;-83
2023/09/17 05:12:47;;;;;;;4.43;4.03;;;16.20;99.90;;;;;;5057891;28;20231;-84
2023/09/17 05:15:13;;;;;;;4.33;3.63;;;16.30;99.90;;;;;;5037927;28;20743;-84
2023/09/17 05:17:39;;;;;;;5.40;3.90;;;16.30;99.90;;;;;;5055970;28;20701;-83
2023/09/17 05:20:08;;;;;;;4.60;4.00;;;16.30;99.90;;;;;;5037911;28;20743;-83
2023/09/17 05:22:34;;;;;;;4.40;3.80;;;16.30;99.90;;;;;;5038459;28;20180;-84
2023/09/17 05:25:00;;;;;;;4.20;3.80;;;16.30;99.90;;;;;;5054623;28;20197;-83
2023/09/17 05:27:25;;;;;;;4.40;4.00;;;16.30;99.90;;;;;;5038147;28;20660;-84
2023/09/17 05:29:51;;;;;;;4.20;3.80;;;16.20;99.90;;;;;;5038242;28;20178;-84
2023/09/17 05:32:16;;;;;;;4.00;3.60;;;16.10;99.90;;;;;;5055625;28;20177;-85
2023/09/17 05:34:44;;;;;;;4.50;4.10;;;16.20;99.90;;;;;;5037867;28;20197;-84
2023/09/17 05:37:09;;;;;;;4.10;3.57;;;16.20;99.90;;;;;;5037222;28;20235;-80
2023/09/17 05:39:35;;;;;;;6.03;3.90;;;16.30;99.90;;;;;;5055439;28;20197;-84
2023/09/17 05:42:00;;;;;;;4.10;3.70;;;16.30;99.90;;;;;;5055795;28;20169;-82
2023/09/17 05:44:26;;;;;;;5.00;3.57;;;16.20;99.90;;;;;;5037275;28;20255;-83
2023/09/17 05:46:51;;;;;;;4.13;3.77;;;16.20;99.90;;;;;;5055531;28;20185;-82
2023/09/17 05:49:17;;;;;;;4.60;4.20;;;16.20;99.90;;;;;;5037148;28;20260;-82
2023/09/17 05:51:43;;;;;;;5.27;4.63;;;16.20;99.90;;;;;;5054681;28;20181;-83
2023/09/17 05:54:08;;;;;;;4.80;4.40;;;16.30;99.90;;;;;;5036638;28;20205;-82
2023/09/17 05:56:34;;;;;;;5.10;4.60;;;16.30;99.90;;;;;;5037812;28;20190;-82
2023/09/17 05:58:59;;;;;;;5.07;4.67;;;16.40;99.90;;;;;;5054876;28;20193;-82
2023/09/17 06:01:25;;;;;;;6.07;5.00;;;16.40;99.90;;;;;;5039045;28;20185;-83
2023/09/17 06:03:51;;;;;;;5.47;4.80;;;16.50;99.90;;;;;;5056588;28;20192;-81
2023/09/17 06:06:17;;;;;;;4.97;4.43;;;16.50;99.90;;;;;;5075172;28;20177;-82
2023/09/17 06:08:42;;;;;;;5.47;4.97;;;16.60;99.90;;;;;;5056727;28;20173;-82
2023/09/17 06:11:08;;;;;;;4.73;4.30;;;16.50;99.90;;;;;;5056820;28;20181;-79
2023/09/17 06:13:34;;;;;;;5.17;4.67;;;16.60;99.90;;;;;;5061254;28;20185;-82
2023/09/17 06:16:23;;;;;;;6.13;4.60;;;16.60;99.90;;;;;;5091043;27;20557;-81
2023/09/17 06:18:49;;;;;;;5.03;4.63;;;16.60;99.90;;;;;;5106990;28;20769;-81
2023/09/17 06:21:15;;;;;;;7.47;5.40;;;16.70;99.90;;;;;;5089350;28;20213;-81
2023/09/17 06:23:40;;;;;;;5.90;4.63;;;16.80;99.90;;;;;;5091078;28;20174;-82
2023/09/17 06:26:07;;;;;;;5.03;4.10;;;16.90;99.90;;;;;;5069155;28;20588;-81
2023/09/17 06:28:33;;;;;;;6.30;4.63;;;16.90;99.90;;;;;;5071043;28;20267;-81
2023/09/17 06:30:59;;;;;;;5.30;4.80;;;16.90;99.90;;;;;;5070709;28;20263;-81
2023/09/17 06:33:25;;;;;;;6.80;5.10;;;17.00;99.90;;;;;;5069587;28;20523;-82
2023/09/17 06:35:50;;;;;;;5.03;4.63;;;17.00;99.90;;;;;;5069244;28;20241;-81
2023/09/17 06:38:16;;;;;;;4.83;4.33;;;17.10;99.90;;;;;;5070745;28;20173;-82
2023/09/17 06:40:41;;;;;;;4.70;4.30;;;17.10;99.90;;;;;;5069163;28;20175;-81
2023/09/17 06:43:07;;;;;;;4.60;4.20;;;17.20;99.90;;;;;;5069294;28;20184;-81
2023/09/17 06:45:33;;;;;;;5.53;4.47;;;17.30;99.90;;;;;;5068904;28;20246;-82
2023/09/17 06:47:58;;;;;;;6.07;5.23;;;17.30;99.90;;;;;;5086280;28;20185;-82
2023/09/17 06:50:24;;;;;;;5.60;5.10;;;17.40;99.90;;;;;;5069117;28;20177;-80
2023/09/17 06:52:49;;;;;;;6.67;5.10;;;17.50;99.90;;;;;;5070349;28;20173;-81
2023/09/17 06:55:15;;;;;;;5.73;5.13;;;17.60;99.90;;;;;;5049254;28;20205;-81
2023/09/17 06:57:41;;;;;;;6.43;5.77;;;17.70;99.90;;;;;;5065906;28;20216;-81
2023/09/17 07:00:07;;;;;;;6.27;5.07;;;17.80;99.90;;;;;;5050094;28;20199;-82
2023/09/17 07:02:33;;;;;;;6.23;5.63;;;17.90;99.90;;;;;;5050040;28;20170;-81
2023/09/17 07:05:01;;;;;;;6.73;6.13;;;17.90;99.90;;;;;;5049157;28;20627;-81
2023/09/17 07:07:26;;;;;;;6.53;5.83;;;18.10;99.90;;;;;;5048833;28;20200;-81
2023/09/17 07:09:52;;;;;;;6.20;5.60;;;18.20;99.90;;;;;;5050073;28;20641;-82
2023/09/17 07:12:18;;;;;;;6.40;5.80;;;18.20;99.90;;;;;;5048961;28;20185;-82
2023/09/17 07:14:43;;;;;;;6.10;5.55;;;18.30;99.90;;;;;;5071126;22;20303;-80
2023/09/17 07:17:10;;;;;;;6.20;5.55;;;18.30;99.90;;;;;;5038129;28;20588;-82
2023/09/17 07:19:35;;;;;;;7.30;5.97;;;18.40;99.90;;;;;;5030890;28;20171;-80
2023/09/17 07:22:01;;;;;;;6.13;5.57;;;18.40;99.90;;;;;;5030716;28;20547;-80
2023/09/17 07:24:27;;;;;;;6.67;5.97;;;18.40;99.90;;;;;;5034818;28;20201;-79
2023/09/17 07:26:52;;;;;;;5.93;4.95;;;18.50;99.90;;;;;;5023969;28;20264;-80
2023/09/17 07:29:18;;;;;;;5.43;4.93;;;18.50;99.90;;;;;;5034388;28;20178;-80
2023/09/17 07:31:46;;;;;;;5.40;4.07;;;18.60;99.90;;;;;;5035370;28;20174;-84
2023/09/17 07:34:12;;;;;;;4.55;4.15;;;18.70;99.90;;;;;;5034710;28;20179;-82
2023/09/17 07:36:38;;;;;;;5.75;5.13;;;18.80;99.90;;;;;;5034419;28;20234;-82
2023/09/17 07:39:04;;;;;;;5.40;4.90;;;18.90;99.90;;;;;;5035298;28;20257;-83
2023/09/17 07:41:29;;;;;;;5.32;4.78;;;18.90;99.90;;;;;;5035406;28;20166;-84
2023/09/17 07:43:55;;;;;;;5.15;4.63;;;18.90;99.90;;;;;;5017626;28;20174;-82
2023/09/17 07:46:20;;;;;;;5.70;5.20;;;19.00;99.90;;;;;;5026408;28;20202;-82
2023/09/17 07:48:47;;;;;;;5.70;5.20;;;19.10;99.90;;;;;;5020820;28;20221;-84
2023/09/17 07:51:13;;;;;;;5.20;4.65;;;19.10;99.90;;;;;;5039137;28;20190;-82
2023/09/17 07:53:38;;;;;;;6.40;5.68;;;19.10;99.90;;;;;;5040037;28;20185;-84
2023/09/17 07:56:04;;;;;;;9.13;5.80;;;19.00;99.90;;;;;;5053818;28;20219;-86
2023/09/17 07:58:30;;;;;;;5.55;5.05;;;19.00;99.90;;;;;;5053934;28;20170;-84
2023/09/17 08:00:56;;;;;;;7.05;5.95;;;19.00;99.90;;;;;;5052475;28;20170;-83
2023/09/17 08:03:21;;;;;;;5.63;5.13;;;19.00;99.90;;;;;;5039124;28;20309;-83
2023/09/17 08:05:47;;;;;;;5.72;5.22;;;19.00;99.90;;;;;;5053480;28;20202;-84
2023/09/17 08:08:14;;;;;;;8.10;6.80;;;19.10;99.90;;;;;;5038051;28;20181;-83
2023/09/17 08:10:40;;;;;;;6.38;5.78;;;19.10;99.90;;;;;;5037872;28;20273;-84
2023/09/17 08:13:06;;;;;;;5.35;4.85;;;19.10;99.90;;;;;;5037892;28;20178;-83
2023/09/17 08:15:31;;;;;;;6.90;6.20;;;19.10;99.90;;;;;;5054081;28;20255;-83
2023/09/17 08:17:57;;;;;;;6.50;5.90;;;19.30;99.90;;;;;;5037998;28;20200;-84
2023/09/17 08:20:23;;;;;;;7.57;6.38;;;19.40;99.90;;;;;;5052932;28;20171;-83
2023/09/17 08:22:50;;;;;;;8.20;6.55;;;19.50;99.90;;;;;;5036946;28;20171;-84
2023/09/17 08:25:16;;;;;;;8.07;7.28;;;19.50;99.90;;;;;;5037528;28;20221;-84
2023/09/17 08:27:41;;;;;;;7.28;6.50;;;19.50;99.90;;;;;;5037503;28;20317;-84
2023/09/17 08:30:11;;;;;;;6.57;5.85;;;19.60;99.90;;;;;;5036299;28;20171;-84
2023/09/17 08:32:41;;;;;;;6.00;5.50;;;19.60;99.90;;;;;;5051970;28;20309;-84
2023/09/17 08:35:07;;;;;;;6.80;6.10;;;19.70;99.90;;;;;;5034953;28;20241;-84
2023/09/17 08:37:37;;;;;;;6.45;5.85;;;19.80;99.90;;;;;;5035495;28;20579;-84
2023/09/17 08:40:11;;;;;;;6.15;5.55;;;20.00;99.90;;;;;;5034540;28;20266;-84
2023/09/17 08:42:38;;;;;;;6.78;6.18;;;20.10;99.90;;;;;;5051399;28;20265;-84
2023/09/17 08:45:04;;;;;;;7.40;5.97;;;20.20;99.90;;;;;;5036369;28;20202;-84
2023/09/17 08:47:30;;;;;;;8.32;6.20;;;20.30;99.90;;;;;;5051584;28;20265;-84
2023/09/17 08:49:56;;;;;;;6.57;5.80;;;20.40;99.90;;;;;;5052568;28;20198;-83
2023/09/17 08:52:25;;;;;;;7.80;5.70;;;20.50;99.90;;;;;;5036707;28;20248;-84
2023/09/17 08:54:52;;;;;;;6.38;5.78;;;20.70;99.90;;;;;;5038007;28;20210;-83
2023/09/17 08:57:22;;;;;;;5.80;5.20;;;20.90;99.90;;;;;;5038607;28;20262;-88
2023/09/17 09:00:00;;;;;;;6.75;5.15;;;21.00;99.90;;;;;;5054237;28;20202;-84
2023/09/17 09:02:31;;;;;;;5.93;5.32;;;21.30;99.90;;;;;;5040089;28;20176;-85
2023/09/17 09:04:57;;;;;;;5.60;5.00;;;21.40;99.90;;;;;;5038970;28;20641;-84
2023/09/17 09:07:24;;;;;;;5.35;4.85;;;21.60;72.60;;;;;;5053124;28;20198;-83
2023/09/17 09:09:54;;;;;;;5.70;4.70;;;21.90;99.90;;;;;;5052627;28;20269;-84
2023/09/17 09:12:20;;;;;;;5.50;4.90;;;21.90;39.70;;;;;;5033576;28;20170;-85
2023/09/17 09:14:47;;;;;;;5.35;4.85;;;22.10;76.10;;;;;;5035070;28;20226;-85
2023/09/17 09:17:13;;;;;;;6.03;4.65;;;22.30;60.00;;;;;;5035880;28;20166;-87
2023/09/17 09:19:39;;;;;;;5.10;4.63;;;22.50;1.00;;;;;;5037137;28;20181;-84
2023/09/17 09:22:05;;;;;;;5.90;4.72;;;22.70;1.00;;;;;;5036710;28;20166;-83
2023/09/17 09:24:41;;;;;;;4.72;4.22;;;22.70;1.00;;;;;;5035718;28;20584;-84
2023/09/17 09:27:06;;;;;;;4.97;4.43;;;22.90;1.00;;;;;;5031770;28;20277;-86
2023/09/17 09:29:33;;;;;;;4.93;4.43;;;23.30;1.00;;;;;;5015438;28;20324;-85
2023/09/17 09:31:59;;;;;;;4.68;4.28;;;23.60;1.00;;;;;;5033512;28;20175;-85
2023/09/17 09:34:25;;;;;;;4.68;4.28;;;23.80;30.10;;;;;;5033216;28;20233;-82
2023/09/17 09:36:51;;;;;;;4.80;4.30;;;24.10;99.90;;;;;;5038146;28;20175;-84
2023/09/17 09:39:17;;;;;;;5.78;4.03;;;24.20;99.90;;;;;;5038741;28;20682;-82
2023/09/17 09:41:43;;;;;;;9.30;5.68;;;24.30;1.00;;;;;;5038674;28;20174;-81
2023/09/17 09:44:08;;;;;;;9.40;6.38;;;24.40;99.90;;;;;;5038481;28;20180;-82
2023/09/17 09:46:35;;;;;;;5.40;4.15;;;24.70;1.00;;;;;;5020589;28;20175;-83
2023/09/17 09:49:01;;;;;;;4.70;4.20;;;24.80;1.00;;;;;;5040721;28;20182;-83
2023/09/17 09:51:29;;;;;;;4.78;4.10;;;25.10;1.00;;;;;;5021709;28;20208;-84
2023/09/17 09:53:55;;;;;;;4.80;4.07;;;25.20;1.00;;;;;;5035961;28;20174;-84
2023/09/17 09:56:27;;;;;;;5.00;3.83;;;25.30;1.00;;;;;;5034448;28;20206;-86
2023/09/17 09:58:57;;;;;;;5.07;3.90;;;25.30;99.90;;;;;;5033998;28;20175;-85
2023/09/17 10:01:23;;;;;;;4.03;3.72;;;25.20;1.00;;;;;;5032213;28;20170;-85
2023/09/17 10:03:50;;;;;;;5.47;3.85;;;25.20;1.00;;;;;;5032381;28;20173;-86
2023/09/17 10:06:16;;;;;;;5.05;3.75;;;25.40;1.00;;;;;;5035180;28;20229;-85
2023/09/17 10:08:42;;;;;;;4.03;3.55;;;25.50;94.80;;;;;;5017346;28;20205;-85
2023/09/17 10:11:08;;;;;;;4.15;3.78;;;25.50;1.00;;;;;;5018264;28;20689;-82
2023/09/17 10:13:34;;;;;;;4.28;3.40;;;25.50;7.50;;;;;;5038965;28;20175;-82
2023/09/17 10:16:02;;;;;;;3.95;3.60;;;25.60;99.90;;;;;;5019588;28;20301;-81
2023/09/17 10:18:30;;;;;;;4.05;3.60;;;25.70;99.90;;;;;;5040456;28;20175;-86
2023/09/17 10:20:56;;;;;;;5.30;3.40;;;25.80;1.00;;;;;;5047310;28;20238;-82
2023/09/17 10:23:23;;;;;;;3.60;3.30;;;25.90;34.90;;;;;;5043341;28;20693;-83
2023/09/17 10:25:50;;;;;;;3.85;3.50;;;26.10;1.00;;;;;;5044484;28;20226;-83
2023/09/17 10:28:17;;;;;;;4.80;3.50;;;26.40;17.40;;;;;;5049786;28;20209;-82
2023/09/17 10:30:46;;;;;;;4.22;3.60;;;26.50;99.90;;;;;;5043718;28;20201;-88
2023/09/17 10:33:14;;;;;;;7.60;3.40;;;26.50;99.90;;;;;;5034640;28;20261;-85
2023/09/17 10:35:42;;;;;;;3.88;2.92;;;26.70;99.90;;;;;;5033883;28;20205;-85
2023/09/17 10:38:09;;;;;;;4.07;3.30;;;26.80;1.00;;;;;;5033206;28;20174;-85
2023/09/17 10:40:36;;;;;;;3.50;3.03;;;26.90;99.90;;;;;;5034488;28;20167;-86
2023/09/17 10:43:04;;;;;;;5.53;3.25;;;27.10;1.00;;;;;;5034853;28;20189;-85
2023/09/17 10:45:34;;;;;;;4.15;3.13;;;27.10;1.00;;;;;;5033745;28;20194;-85
2023/09/17 10:48:01;;;;;;;3.88;3.08;;;27.20;1.00;;;;;;5034516;28;20651;-85
2023/09/17 10:50:27;;;;;;;3.40;3.10;;;27.20;1.00;;;;;;5033860;28;20185;-86
2023/09/17 10:52:53;;;;;;;6.50;3.17;;;27.30;1.00;;;;;;5034749;28;20178;-85
2023/09/17 10:55:22;;;;;;;4.10;3.15;;;26.90;1.00;;;;;;5033563;28;20191;-88
2023/09/17 10:58:06;;;;;;;3.55;2.90;;;27.00;1.00;;;;;;5032959;28;20217;-84
2023/09/17 11:00:35;;;;;;;3.95;3.22;;;27.30;1.00;;;;;;5034209;28;20178;-85
2023/09/17 11:03:04;;;;;;;3.78;2.97;;;27.40;1.00;;;;;;5036083;28;20186;-85
2023/09/17 11:05:32;;;;;;;4.28;2.92;;;27.60;1.00;;;;;;5037430;28;20294;-86
2023/09/17 11:08:02;;;;;;;4.45;2.88;;;27.70;99.90;;;;;;5034445;28;20290;-84
2023/09/17 11:10:29;;;;;;;3.75;3.00;;;27.70;99.90;;;;;;5033232;28;20182;-85
2023/09/17 11:12:54;;;;;;;3.65;2.60;;;27.70;1.00;;;;;;5017919;28;20647;-85
2023/09/17 11:15:20;;;;;;;4.75;2.75;;;27.80;99.90;;;;;;5017331;28;20356;-85
2023/09/17 11:17:49;;;;;;;3.25;2.95;;;27.80;99.90;;;;;;5018486;28;20175;-87
2023/09/17 11:20:20;;;;;;;5.97;2.92;;;27.70;99.90;;;;;;5017175;28;20179;-86
2023/09/17 11:22:52;;;;;;;4.13;2.90;;;28.00;99.90;;;;;;5032671;28;20678;-85
2023/09/17 11:25:35;;;;;;;5.53;2.85;;;28.00;99.90;;;;;;5017301;28;20628;-87
2023/09/17 11:28:11;;;;;;;3.13;2.70;;;28.00;99.90;;;;;;5017916;28;20178;-85
2023/09/17 11:31:01;;;;;;;4.85;2.58;;;28.00;99.90;;;;;;5017419;28;20178;-85
2023/09/17 11:33:28;;;;;;;4.07;2.80;;;28.20;99.90;;;;;;5036009;28;20249;-85
2023/09/17 11:35:56;;;;;;;3.20;2.60;;;28.00;99.90;;;;;;5034434;28;20202;-86
2023/09/17 11:38:24;;;;;;;3.78;3.20;;;28.30;99.90;;;;;;5034839;28;20186;-84
2023/09/17 11:41:08;;;;;;;4.10;2.90;;;28.40;99.90;;;;;;5034249;28;20542;-85
2023/09/17 11:43:36;;;;;;;3.10;2.55;;;28.40;99.90;;;;;;5028746;28;20273;-85
2023/09/17 11:46:08;;;;;;;4.13;2.58;;;28.60;1.10;;;;;;5032614;28;20206;-85
2023/09/17 11:48:36;;;;;;;4.57;2.83;;;28.90;1.00;;;;;;5035509;28;20209;-84
2023/09/17 11:51:19;;;;;;;4.60;2.33;;;28.70;1.00;;;;;;5035153;28;20174;-85
2023/09/17 11:54:11;;;;;;;2.90;2.35;;;28.50;1.00;;;;;;5017985;28;20178;-83
2023/09/17 11:56:50;;;;;;;4.10;2.40;;;28.70;1.00;;;;;;5028514;28;20218;-84
2023/09/17 11:59:17;;;;;;;3.90;2.30;;;28.60;1.00;;;;;;5036735;28;20259;-84
2023/09/17 12:01:44;;;;;;;5.40;2.65;;;28.80;1.00;;;;;;5037188;28;20209;-84
2023/09/17 12:04:11;;;;;;;3.25;2.40;;;28.90;1.00;;;;;;5039779;28;20174;-84
2023/09/17 12:06:41;;;;;;;4.13;2.67;;;29.00;1.00;;;;;;5039145;28;20720;-83
2023/09/17 12:09:23;;;;;;;3.13;2.55;;;28.90;1.00;;;;;;5042648;28;20378;-82
2023/09/17 12:11:50;;;;;;;3.17;2.40;;;28.70;1.00;;;;;;5038564;28;20588;-83
2023/09/17 12:14:17;;;;;;;3.53;2.70;;;28.40;1.00;;;;;;5034853;28;20166;-83
2023/09/17 12:16:42;;;;;;;3.35;2.50;;;28.40;1.00;;;;;;5035366;28;20170;-84
2023/09/17 12:19:08;;;;;;;4.78;2.75;;;28.40;1.00;;;;;;5033338;28;20175;-84
2023/09/17 12:21:40;;;;;;;3.17;2.70;;;28.80;1.00;;;;;;5018482;28;20171;-84
2023/09/17 12:24:08;;;;;;;4.57;2.90;;;28.70;1.00;;;;;;5018800;28;20172;-84
2023/09/17 12:26:52;;;;;;;4.93;2.60;;;28.60;1.00;;;;;;5018167;28;20286;-87
2023/09/17 12:29:18;;;;;;;3.83;3.00;;;28.80;16.10;;;;;;5034723;28;20190;-85
2023/09/17 12:31:44;;;;;;;2.72;2.40;;;28.80;1.00;;;;;;5034681;28;20175;-84
2023/09/17 12:34:10;;;;;;;5.07;2.72;;;28.80;1.00;;;;;;5018612;28;20202;-83
2023/09/17 12:36:36;;;;;;;3.35;2.72;;;29.00;1.00;;;;;;5033834;28;20210;-84
2023/09/17 12:39:02;;;;;;;3.63;2.80;;;28.90;1.00;;;;;;5034135;28;20174;-84
2023/09/17 12:41:27;;;;;;;2.80;2.33;;;28.70;1.00;;;;;;5017914;28;20182;-84
2023/09/17 12:43:53;;;;;;;3.78;2.67;;;28.80;2.90;;;;;;5018205;28;20213;-84
2023/09/17 12:46:18;;;;;;;3.40;2.45;;;28.90;1.00;;;;;;5018351;28;20207;-84
2023/09/17 12:48:44;;;;;;;2.53;2.33;;;28.80;1.00;;;;;;5033409;28;20266;-84